Time;durP1;ratioP1;P1;durP2;ratioP2;P2;SDS_P1;SDS_P2;PMS_P1;PMS_P2;Temp;Humidity;BMP_temperature;BMP_pressure;BME280_temperature;BME280_humidity;BME280_pressure;Samples;Min_cycle;Max_cycle;Signal;HPM_P1;HPM_P2
2022/04/05 00:01:31;;;;;;;2.53;2.22;;;;;;;;;;5051491;28;20044;-26
2022/04/05 00:03:57;;;;;;;4.75;2.50;;;;;;;;;;5051513;28;20049;-27
2022/04/05 00:06:23;;;;;;;4.57;2.22;;;;;;;;;;5051723;28;20049;-27
2022/04/05 00:08:49;;;;;;;4.88;2.20;;;;;;;;;;5052361;28;20040;-27
2022/04/05 00:11:16;;;;;;;3.58;2.10;;;;;;;;;;5054962;28;20090;-29
2022/04/05 00:13:42;;;;;;;6.82;2.15;;;;;;;;;;5055451;28;20087;-29
2022/04/05 00:16:08;;;;;;;3.33;1.83;;;;;;;;;;5055271;28;20041;-30
2022/04/05 00:18:34;;;;;;;2.97;1.90;;;;;;;;;;5055593;28;20068;-29
2022/04/05 00:21:00;;;;;;;6.82;2.47;;;;;;;;;;5056241;28;20418;-29
2022/04/05 00:23:26;;;;;;;4.70;1.70;;;;;;;;;;5072217;28;20044;-27
2022/04/05 00:25:52;;;;;;;5.15;1.98;;;;;;;;;;5055790;28;20048;-28
2022/04/05 00:28:18;;;;;;;2.85;1.55;;;;;;;;;;5055191;28;20040;-29
2022/04/05 00:30:44;;;;;;;4.53;1.48;;;;;;;;;;5054696;28;20045;-28
2022/04/05 00:33:11;;;;;;;3.47;1.40;;;;;;;;;;5054752;28;20037;-29
2022/04/05 00:35:37;;;;;;;4.57;1.63;;;;;;;;;;5055377;28;20037;-28
2022/04/05 00:38:03;;;;;;;4.03;1.40;;;;;;;;;;5054577;28;20439;-30
2022/04/05 00:40:30;;;;;;;1.15;1.05;;;;;;;;;;5054974;28;20509;-29
2022/04/05 00:42:56;;;;;;;2.83;1.27;;;;;;;;;;5054949;28;20045;-30
2022/04/05 00:45:22;;;;;;;4.90;1.67;;;;;;;;;;5055016;28;20041;-28
2022/04/05 00:47:50;;;;;;;6.20;1.50;;;;;;;;;;5054841;28;20072;-28
2022/04/05 00:50:21;;;;;;;2.72;1.42;;;;;;;;;;5054305;28;20055;-28
2022/04/05 00:52:47;;;;;;;1.33;0.90;;;;;;;;;;5036853;28;20059;-28
2022/04/05 00:55:13;;;;;;;2.38;1.10;;;;;;;;;;5054798;28;20041;-29
2022/04/05 00:57:41;;;;;;;1.63;1.20;;;;;;;;;;5054259;28;20036;-29
2022/04/05 01:00:08;;;;;;;3.28;1.50;;;;;;;;;;5053899;28;20047;-28
2022/04/05 01:02:38;;;;;;;2.50;1.10;;;;;;;;;;5054415;28;20045;-29
2022/04/05 01:05:05;;;;;;;3.17;1.52;;;;;;;;;;5062847;28;20036;-29
2022/04/05 01:07:32;;;;;;;4.57;1.30;;;;;;;;;;5074204;28;20036;-33
2022/04/05 01:09:59;;;;;;;3.30;1.30;;;;;;;;;;5074528;28;20036;-28
2022/04/05 01:12:25;;;;;;;5.55;1.30;;;;;;;;;;5073984;28;20037;-27
2022/04/05 01:14:51;;;;;;;2.90;1.25;;;;;;;;;;5074252;28;20040;-28
2022/04/05 01:17:18;;;;;;;3.00;1.50;;;;;;;;;;5073865;28;20130;-29
2022/04/05 01:19:46;;;;;;;3.30;1.30;;;;;;;;;;5055684;28;20036;-27
2022/04/05 01:22:13;;;;;;;4.97;1.52;;;;;;;;;;5074149;28;20048;-27
2022/04/05 01:24:39;;;;;;;2.90;1.25;;;;;;;;;;5073814;28;20037;-27
2022/04/05 01:27:12;;;;;;;3.35;1.40;;;;;;;;;;5073855;28;20094;-33
2022/04/05 01:29:38;;;;;;;2.50;1.40;;;;;;;;;;5073779;28;20048;-30
2022/04/05 01:32:08;;;;;;;2.75;1.50;;;;;;;;;;5073910;28;20401;-28
2022/04/05 01:34:35;;;;;;;3.25;1.30;;;;;;;;;;5073949;28;20037;-28
2022/04/05 01:37:03;;;;;;;4.75;1.50;;;;;;;;;;5073979;28;20040;-26
2022/04/05 01:39:30;;;;;;;3.15;1.45;;;;;;;;;;5073335;28;20400;-28
2022/04/05 01:42:04;;;;;;;3.20;1.75;;;;;;;;;;5073477;28;20044;-27
2022/04/05 01:44:31;;;;;;;5.97;1.83;;;;;;;;;;5073452;28;20098;-26
2022/04/05 01:46:57;;;;;;;4.45;1.55;;;;;;;;;;5073710;28;20041;-29
2022/04/05 01:49:23;;;;;;;3.75;1.60;;;;;;;;;;5073320;28;20044;-27
2022/04/05 01:51:50;;;;;;;4.05;1.33;;;;;;;;;;5073339;28;20099;-26
2022/04/05 01:54:17;;;;;;;3.33;1.35;;;;;;;;;;5073451;28;20398;-29
2022/04/05 01:56:50;;;;;;;4.47;1.80;;;;;;;;;;5073644;28;20036;-27
2022/04/05 01:59:17;;;;;;;3.38;1.63;;;;;;;;;;5073474;28;20032;-28
2022/04/05 02:01:43;;;;;;;5.10;1.80;;;;;;;;;;5073058;28;20070;-27
2022/04/05 02:04:10;;;;;;;3.13;1.58;;;;;;;;;;5072977;28;20040;-27
2022/04/05 02:06:36;;;;;;;4.53;1.80;;;;;;;;;;5073328;28;20052;-27
2022/04/05 02:09:03;;;;;;;3.38;1.50;;;;;;;;;;5072976;28;20040;-28
2022/04/05 02:11:30;;;;;;;3.47;1.40;;;;;;;;;;5072898;28;20036;-28
2022/04/05 02:13:56;;;;;;;4.85;2.05;;;;;;;;;;5055118;28;20094;-27
2022/04/05 02:16:22;;;;;;;4.95;1.48;;;;;;;;;;5055382;28;20032;-28
2022/04/05 02:18:48;;;;;;;2.60;1.05;;;;;;;;;;5073126;28;20409;-26
2022/04/05 02:21:14;;;;;;;4.63;1.88;;;;;;;;;;5072789;28;20048;-28
2022/04/05 02:23:41;;;;;;;2.55;1.15;;;;;;;;;;5073000;28;20047;-26
2022/04/05 02:26:07;;;;;;;4.05;1.30;;;;;;;;;;5055013;28;20043;-27
2022/04/05 02:28:33;;;;;;;3.53;1.33;;;;;;;;;;5073059;28;20041;-27
2022/04/05 02:30:59;;;;;;;2.55;1.15;;;;;;;;;;5072655;28;20067;-28
2022/04/05 02:33:25;;;;;;;2.33;1.00;;;;;;;;;;5054892;28;20048;-29
2022/04/05 02:35:52;;;;;;;4.60;1.15;;;;;;;;;;5073280;28;20066;-27
2022/04/05 02:38:18;;;;;;;5.20;1.30;;;;;;;;;;5072308;28;20044;-28
2022/04/05 02:40:45;;;;;;;3.60;1.30;;;;;;;;;;5054438;28;20341;-29
2022/04/05 02:43:11;;;;;;;3.03;1.10;;;;;;;;;;5072683;28;20374;-27
2022/04/05 02:45:37;;;;;;;2.65;1.05;;;;;;;;;;5072707;28;20443;-27
2022/04/05 02:48:03;;;;;;;2.65;1.00;;;;;;;;;;5072768;28;20040;-28
2022/04/05 02:50:29;;;;;;;3.67;1.13;;;;;;;;;;5072906;28;20040;-26
2022/04/05 02:52:56;;;;;;;2.90;1.13;;;;;;;;;;5072586;28;20048;-26
2022/04/05 02:55:22;;;;;;;2.28;1.20;;;;;;;;;;5072179;28;20040;-27
2022/04/05 02:57:49;;;;;;;4.70;1.40;;;;;;;;;;5072225;28;20033;-29
2022/04/05 03:00:17;;;;;;;3.40;1.48;;;;;;;;;;5072524;28;20566;-27
2022/04/05 03:02:47;;;;;;;3.50;1.38;;;;;;;;;;5072838;28;20093;-28
2022/04/05 03:05:13;;;;;;;2.95;1.42;;;;;;;;;;5072341;28;20036;-29
2022/04/05 03:07:40;;;;;;;2.28;1.30;;;;;;;;;;5072509;28;20048;-30
2022/04/05 03:10:10;;;;;;;3.33;1.33;;;;;;;;;;5072239;28;20049;-27
2022/04/05 03:12:37;;;;;;;4.00;1.20;;;;;;;;;;5072043;28;20048;-27
2022/04/05 03:15:04;;;;;;;3.95;1.80;;;;;;;;;;5072167;28;20121;-28
2022/04/05 03:17:30;;;;;;;2.83;1.40;;;;;;;;;;5054329;28;20032;-34
2022/04/05 03:19:58;;;;;;;2.42;1.40;;;;;;;;;;5057331;28;20041;-33
2022/04/05 03:22:24;;;;;;;5.45;1.50;;;;;;;;;;5051814;28;20043;-33
2022/04/05 03:24:50;;;;;;;3.28;1.75;;;;;;;;;;5053022;28;20045;-33
2022/04/05 03:27:16;;;;;;;3.63;1.50;;;;;;;;;;5053383;28;20549;-34
2022/04/05 03:29:42;;;;;;;2.90;1.50;;;;;;;;;;5053086;28;20043;-34
2022/04/05 03:32:11;;;;;;;3.17;1.70;;;;;;;;;;5053925;28;20066;-32
2022/04/05 03:34:37;;;;;;;3.72;1.60;;;;;;;;;;5052251;28;20091;-34
2022/04/05 03:37:04;;;;;;;5.72;1.70;;;;;;;;;;5051702;28;20037;-33
2022/04/05 03:39:30;;;;;;;5.68;1.80;;;;;;;;;;5051927;28;20037;-31
2022/04/05 03:41:57;;;;;;;4.72;2.10;;;;;;;;;;5052223;28;20071;-32
2022/04/05 03:44:24;;;;;;;7.53;2.25;;;;;;;;;;5064126;28;20045;-32
2022/04/05 03:46:51;;;;;;;6.32;2.03;;;;;;;;;;5056240;28;20049;-33
2022/04/05 03:49:17;;;;;;;5.38;2.22;;;;;;;;;;5055459;28;20501;-34
2022/04/05 03:51:43;;;;;;;3.65;2.25;;;;;;;;;;5066627;28;20044;-34
2022/04/05 03:54:09;;;;;;;5.53;2.55;;;;;;;;;;5062441;28;20036;-33
2022/04/05 03:56:35;;;;;;;5.05;2.72;;;;;;;;;;5076070;28;20504;-33
2022/04/05 03:59:01;;;;;;;7.18;3.03;;;;;;;;;;5069662;28;20490;-31
2022/04/05 04:01:28;;;;;;;5.65;2.55;;;;;;;;;;5055317;28;20501;-32
2022/04/05 04:03:54;;;;;;;4.38;2.38;;;;;;;;;;5056724;28;20048;-34
2022/04/05 04:06:20;;;;;;;4.05;2.53;;;;;;;;;;5055274;28;20044;-33
2022/04/05 04:08:46;;;;;;;6.55;2.80;;;;;;;;;;5073773;28;20102;-35
2022/04/05 04:11:12;;;;;;;5.85;3.10;;;;;;;;;;5037484;28;20418;-34
2022/04/05 04:13:39;;;;;;;5.65;2.92;;;;;;;;;;5055559;28;20041;-34
2022/04/05 04:16:05;;;;;;;8.20;3.58;;;;;;;;;;5055704;28;20097;-34
2022/04/05 04:18:31;;;;;;;7.60;3.20;;;;;;;;;;5061147;28;20425;-31
2022/04/05 04:20:58;;;;;;;7.80;2.95;;;;;;;;;;5057265;28;20112;-32
2022/04/05 04:23:24;;;;;;;6.30;3.33;;;;;;;;;;5073943;28;20033;-32
2022/04/05 04:25:50;;;;;;;9.95;3.75;;;;;;;;;;5071365;28;20182;-33
2022/04/05 04:28:16;;;;;;;5.75;3.22;;;;;;;;;;5049083;28;20045;-31
2022/04/05 04:30:42;;;;;;;6.88;3.20;;;;;;;;;;5069323;28;20482;-31
2022/04/05 04:33:08;;;;;;;7.60;3.45;;;;;;;;;;5075449;28;20470;-32
2022/04/05 04:35:35;;;;;;;7.57;3.90;;;;;;;;;;5065985;28;20120;-34
2022/04/05 04:38:01;;;;;;;6.55;3.15;;;;;;;;;;5063350;28;20115;-32
2022/04/05 04:40:27;;;;;;;8.07;4.35;;;;;;;;;;5057182;28;20036;-33
2022/04/05 04:42:54;;;;;;;8.32;3.72;;;;;;;;;;5069839;28;20040;-34
2022/04/05 04:45:21;;;;;;;6.43;3.63;;;;;;;;;;5061878;28;20040;-34
2022/04/05 04:47:47;;;;;;;8.60;4.00;;;;;;;;;;5072700;28;20127;-33
2022/04/05 04:50:13;;;;;;;6.90;3.85;;;;;;;;;;5072965;28;20040;-34
2022/04/05 04:52:40;;;;;;;11.00;3.85;;;;;;;;;;5074655;28;20091;-32
2022/04/05 04:55:07;;;;;;;7.15;3.42;;;;;;;;;;5055276;28;20067;-36
2022/04/05 04:57:33;;;;;;;7.90;4.07;;;;;;;;;;5075127;28;20040;-33
2022/04/05 05:00:00;;;;;;;7.03;4.38;;;;;;;;;;5071321;28;20453;-33
2022/04/05 05:02:27;;;;;;;8.63;3.53;;;;;;;;;;5058305;28;20052;-35
2022/04/05 05:04:53;;;;;;;9.73;4.38;;;;;;;;;;5064712;28;20044;-33
2022/04/05 05:07:19;;;;;;;8.35;3.85;;;;;;;;;;5058409;28;20036;-34
2022/04/05 05:09:46;;;;;;;7.03;4.07;;;;;;;;;;5070153;28;20045;-33
2022/04/05 05:12:12;;;;;;;6.72;4.07;;;;;;;;;;5063904;28;20517;-33
2022/04/05 05:14:38;;;;;;;7.88;3.60;;;;;;;;;;5060903;28;20029;-35
2022/04/05 05:17:05;;;;;;;5.40;3.72;;;;;;;;;;5061684;28;20113;-33
2022/04/05 05:19:32;;;;;;;6.88;3.42;;;;;;;;;;5041317;28;20503;-32
2022/04/05 05:21:58;;;;;;;9.75;4.30;;;;;;;;;;5064040;28;20340;-34
2022/04/05 05:24:24;;;;;;;10.98;4.07;;;;;;;;;;5067251;28;20039;-33
2022/04/05 05:26:51;;;;;;;7.25;4.28;;;;;;;;;;5073001;28;20498;-33
2022/04/05 05:29:17;;;;;;;6.75;4.03;;;;;;;;;;5074183;28;20102;-32
2022/04/05 05:31:43;;;;;;;6.88;3.80;;;;;;;;;;5065096;28;20506;-33
2022/04/05 05:34:09;;;;;;;8.18;4.20;;;;;;;;;;5055601;28;20032;-34
2022/04/05 05:36:36;;;;;;;8.85;3.95;;;;;;;;;;5064251;28;20391;-34
2022/04/05 05:39:02;;;;;;;8.05;4.35;;;;;;;;;;5053650;28;20444;-35
2022/04/05 05:41:30;;;;;;;7.30;4.18;;;;;;;;;;5057440;28;20048;-34
2022/04/05 05:43:59;;;;;;;6.72;4.07;;;;;;;;;;5053933;28;20091;-32
2022/04/05 05:46:25;;;;;;;8.18;4.38;;;;;;;;;;5045211;28;20119;-31
2022/04/05 05:48:51;;;;;;;9.25;4.43;;;;;;;;;;5073223;28;20044;-36
2022/04/05 05:51:17;;;;;;;9.80;4.07;;;;;;;;;;5073090;28;20068;-33
2022/04/05 05:53:43;;;;;;;8.02;3.83;;;;;;;;;;5090740;28;20044;-33
2022/04/05 05:56:09;;;;;;;14.13;5.97;;;;;;;;;;5093710;28;20081;-35
2022/04/05 05:58:35;;;;;;;9.75;4.13;;;;;;;;;;5093731;28;20482;-34
2022/04/05 06:01:01;;;;;;;8.20;4.45;;;;;;;;;;5067989;28;20119;-31
2022/04/05 06:03:28;;;;;;;5.15;3.67;;;;;;;;;;5063936;28;20494;-34
2022/04/05 06:05:54;;;;;;;7.30;3.60;;;;;;;;;;5057169;28;20056;-36
2022/04/05 06:08:20;;;;;;;9.82;4.70;;;;;;;;;;5067834;28;20437;-34
2022/04/05 06:10:48;;;;;;;10.27;4.28;;;;;;;;;;5070203;28;20067;-33
2022/04/05 06:13:16;;;;;;;6.93;3.90;;;;;;;;;;5073085;28;20497;-32
2022/04/05 06:15:42;;;;;;;7.15;3.95;;;;;;;;;;5054853;28;20048;-35
2022/04/05 06:18:08;;;;;;;9.88;4.65;;;;;;;;;;5066706;28;20037;-34
2022/04/05 06:20:34;;;;;;;6.53;3.45;;;;;;;;;;5051841;28;20040;-33
2022/04/05 06:23:05;;;;;;;7.15;3.35;;;;;;;;;;5064596;28;20406;-33
2022/04/05 06:25:32;;;;;;;8.68;4.07;;;;;;;;;;5056863;28;20047;-35
2022/04/05 06:28:07;;;;;;;7.47;2.97;;;;;;;;;;5115567;27;20701;-33
2022/04/05 06:30:34;;;;;;;5.25;3.22;;;;;;;;;;5085381;28;20040;-33
2022/04/05 06:33:05;;;;;;;4.50;2.60;;;;;;;;;;5082934;28;20093;-31
2022/04/05 06:35:31;;;;;;;8.27;3.15;;;;;;;;;;5076492;28;20119;-33
2022/04/05 06:37:58;;;;;;;4.85;2.47;;;;;;;;;;5085626;28;20095;-32
2022/04/05 06:40:24;;;;;;;8.02;2.60;;;;;;;;;;5076378;28;20041;-31
2022/04/05 06:42:51;;;;;;;7.43;3.05;;;;;;;;;;5085575;28;20115;-33
2022/04/05 06:45:19;;;;;;;4.05;2.33;;;;;;;;;;5073946;28;20498;-34
2022/04/05 06:47:45;;;;;;;6.70;3.03;;;;;;;;;;5069429;28;20436;-31
2022/04/05 06:50:13;;;;;;;6.55;2.85;;;;;;;;;;5085485;28;20039;-31
2022/04/05 06:52:40;;;;;;;6.22;2.75;;;;;;;;;;5083431;28;20067;-35
2022/04/05 06:55:08;;;;;;;5.20;2.42;;;;;;;;;;5072476;28;20111;-33
2022/04/05 06:57:34;;;;;;;4.82;3.05;;;;;;;;;;5085396;28;20087;-33
2022/04/05 07:00:00;;;;;;;5.03;2.17;;;;;;;;;;5084100;28;20513;-33
2022/04/05 07:02:27;;;;;;;7.40;2.78;;;;;;;;;;5081397;28;20043;-33
2022/04/05 07:04:53;;;;;;;8.32;2.55;;;;;;;;;;5078181;28;20037;-33
2022/04/05 07:07:19;;;;;;;5.90;2.17;;;;;;;;;;5083227;28;20131;-33
2022/04/05 07:09:45;;;;;;;5.47;2.15;;;;;;;;;;5076315;28;20036;-33
2022/04/05 07:12:11;;;;;;;7.55;2.03;;;;;;;;;;5081865;28;20074;-34
2022/04/05 07:14:39;;;;;;;6.80;3.03;;;;;;;;;;5075433;28;20036;-36
2022/04/05 07:17:05;;;;;;;5.57;2.42;;;;;;;;;;5082342;28;20483;-33
2022/04/05 07:19:33;;;;;;;5.30;2.35;;;;;;;;;;5077812;28;21312;-32
2022/04/05 07:22:00;;;;;;;4.65;2.05;;;;;;;;;;5086925;28;20040;-32
2022/04/05 07:24:28;;;;;;;5.50;1.80;;;;;;;;;;5067229;28;20043;-32
2022/04/05 07:26:55;;;;;;;4.97;1.63;;;;;;;;;;5069704;28;20510;-32
2022/04/05 07:29:21;;;;;;;6.03;2.05;;;;;;;;;;5086983;28;20028;-32
2022/04/05 07:31:48;;;;;;;5.97;1.92;;;;;;;;;;5079644;28;20086;-31
2022/04/05 07:34:14;;;;;;;4.43;1.67;;;;;;;;;;5086612;28;20043;-31
2022/04/05 07:36:41;;;;;;;2.70;1.30;;;;;;;;;;5066143;28;20047;-33
2022/04/05 07:39:08;;;;;;;2.67;1.35;;;;;;;;;;5067722;28;20568;-30
2022/04/05 07:41:34;;;;;;;2.97;1.40;;;;;;;;;;5063078;28;20041;-33
2022/04/05 07:44:01;;;;;;;4.07;1.42;;;;;;;;;;5073994;28;20134;-31
2022/04/05 07:46:27;;;;;;;4.88;1.80;;;;;;;;;;5058335;28;20037;-33
2022/04/05 07:48:54;;;;;;;3.13;1.40;;;;;;;;;;5054164;28;20040;-34
2022/04/05 07:51:21;;;;;;;3.75;1.48;;;;;;;;;;5054583;28;20087;-32
2022/04/05 07:53:48;;;;;;;1.83;1.20;;;;;;;;;;5071279;28;20045;-35
2022/04/05 07:56:14;;;;;;;2.47;1.15;;;;;;;;;;5072630;28;20575;-32
2022/04/05 07:58:45;;;;;;;1.65;1.30;;;;;;;;;;5072685;28;20040;-34
2022/04/05 08:01:11;;;;;;;2.35;1.35;;;;;;;;;;5061133;28;20041;-33
2022/04/05 08:03:38;;;;;;;1.95;1.33;;;;;;;;;;5053681;28;20040;-32
2022/04/05 08:06:04;;;;;;;5.43;2.03;;;;;;;;;;5070748;28;20043;-33
2022/04/05 08:08:31;;;;;;;2.75;1.20;;;;;;;;;;5070001;28;20035;-33
2022/04/05 08:10:58;;;;;;;2.47;1.60;;;;;;;;;;5067015;28;20044;-32
2022/04/05 08:13:26;;;;;;;2.45;1.00;;;;;;;;;;5073168;28;20040;-34
2022/04/05 08:15:53;;;;;;;1.75;1.00;;;;;;;;;;5070064;28;20117;-33
2022/04/05 08:18:21;;;;;;;2.40;1.10;;;;;;;;;;5069891;28;20032;-33
2022/04/05 08:20:48;;;;;;;2.95;1.33;;;;;;;;;;5065840;28;20044;-33
2022/04/05 08:23:16;;;;;;;1.95;1.40;;;;;;;;;;5067718;28;20422;-31
2022/04/05 08:25:42;;;;;;;3.05;1.42;;;;;;;;;;5065156;28;20068;-33
2022/04/05 08:28:09;;;;;;;3.33;1.20;;;;;;;;;;5068737;28;20513;-32
2022/04/05 08:30:36;;;;;;;1.65;1.35;;;;;;;;;;5065002;28;20044;-31
2022/04/05 08:33:03;;;;;;;1.73;0.95;;;;;;;;;;5064995;28;20047;-34
2022/04/05 08:35:31;;;;;;;1.65;1.20;;;;;;;;;;5068913;28;20515;-31
2022/04/05 08:37:57;;;;;;;1.92;1.17;;;;;;;;;;5052744;28;20044;-33
2022/04/05 08:40:25;;;;;;;1.75;1.15;;;;;;;;;;5051192;28;20426;-33
2022/04/05 08:42:54;;;;;;;3.28;1.55;;;;;;;;;;5056609;28;20079;-33
2022/04/05 08:45:20;;;;;;;2.83;1.38;;;;;;;;;;5071600;28;20036;-31
2022/04/05 08:47:46;;;;;;;2.28;1.52;;;;;;;;;;5069431;28;20102;-33
2022/04/05 08:50:15;;;;;;;3.45;1.50;;;;;;;;;;5068568;28;20443;-33
2022/04/05 08:52:43;;;;;;;5.05;2.08;;;;;;;;;;5070340;28;20504;-31
2022/04/05 08:55:10;;;;;;;3.38;1.60;;;;;;;;;;5070830;28;20028;-33
2022/04/05 08:57:36;;;;;;;2.22;1.58;;;;;;;;;;5058669;28;20060;-31
2022/04/05 09:00:05;;;;;;;1.95;1.30;;;;;;;;;;5070203;28;20044;-31
2022/04/05 09:02:32;;;;;;;2.45;1.10;;;;;;;;;;5063523;28;20174;-32
2022/04/05 09:04:58;;;;;;;1.70;1.27;;;;;;;;;;5063717;28;20222;-34
2022/04/05 09:07:26;;;;;;;1.63;1.30;;;;;;;;;;5055336;28;20041;-33
2022/04/05 09:10:25;;;;;;;1.42;1.17;;;;;;;;;;5036886;28;20064;-31
2022/04/05 09:12:52;;;;;;;3.92;1.60;;;;;;;;;;5030818;28;20055;-33
2022/04/05 09:15:22;;;;;;;1.35;1.10;;;;;;;;;;5069741;28;20037;-31
2022/04/05 09:17:49;;;;;;;1.40;1.30;;;;;;;;;;5070291;28;20323;-33
2022/04/05 09:20:18;;;;;;;1.45;1.15;;;;;;;;;;5058048;28;20087;-32
2022/04/05 09:22:45;;;;;;;1.52;1.33;;;;;;;;;;5062872;28;20127;-32
2022/04/05 09:25:13;;;;;;;1.83;1.25;;;;;;;;;;5069121;28;20301;-33
2022/04/05 09:27:43;;;;;;;1.30;1.20;;;;;;;;;;5059950;28;20037;-33
2022/04/05 09:30:37;;;;;;;1.45;1.35;;;;;;;;;;5065109;28;20036;-33
2022/04/05 09:33:04;;;;;;;1.48;1.38;;;;;;;;;;5055597;28;20170;-31
2022/04/05 09:35:40;;;;;;;1.27;1.17;;;;;;;;;;5066321;28;20037;-33
2022/04/05 09:38:17;;;;;;;1.30;1.20;;;;;;;;;;5065491;28;20040;-34
2022/04/05 09:40:43;;;;;;;1.20;1.10;;;;;;;;;;5060503;28;20124;-35
2022/04/05 09:43:14;;;;;;;1.35;1.25;;;;;;;;;;5066104;28;20037;-31
2022/04/05 09:46:02;;;;;;;1.35;1.25;;;;;;;;;;5068926;28;20048;-33
2022/04/05 09:48:32;;;;;;;1.55;1.40;;;;;;;;;;5065825;28;20048;-34
2022/04/05 09:51:14;;;;;;;1.50;1.40;;;;;;;;;;5064741;28;20515;-32
2022/04/05 09:53:43;;;;;;;1.80;1.20;;;;;;;;;;5064054;28;20125;-30
2022/04/05 09:56:14;;;;;;;1.50;1.40;;;;;;;;;;5064521;28;20125;-33
2022/04/05 09:58:45;;;;;;;4.10;1.52;;;;;;;;;;5067934;28;20505;-31
2022/04/05 10:01:11;;;;;;;2.00;1.80;;;;;;;;;;5057663;28;20074;-32
2022/04/05 10:03:56;;;;;;;2.03;1.60;;;;;;;;;;5064344;28;20040;-34
2022/04/05 10:06:22;;;;;;;2.03;1.83;;;;;;;;;;5060096;28;20045;-34
2022/04/05 10:08:48;;;;;;;2.10;1.92;;;;;;;;;;5060106;28;20486;-34
2022/04/05 10:11:15;;;;;;;2.33;2.13;;;;;;;;;;5059430;28;20044;-33
2022/04/05 10:13:41;;;;;;;1.85;1.75;;;;;;;;;;5061057;28;20437;-31
2022/04/05 10:16:08;;;;;;;1.98;1.77;;;;;;;;;;5057748;28;20041;-34
2022/04/05 10:18:35;;;;;;;3.53;2.55;;;;;;;;;;5057995;28;20083;-32
2022/04/05 10:21:02;;;;;;;3.45;2.90;;;;;;;;;;5061603;28;20455;-34
2022/04/05 10:23:28;;;;;;;4.03;3.00;;;;;;;;;;5059057;28;20041;-35
2022/04/05 10:25:55;;;;;;;3.65;3.13;;;;;;;;;;5060635;28;20091;-32
2022/04/05 10:28:29;;;;;;;4.55;3.22;;;;;;;;;;5061391;28;20387;-31
2022/04/05 10:31:04;;;;;;;4.78;3.75;;;;;;;;;;5056829;28;20047;-34
2022/04/05 10:33:45;;;;;;;4.10;3.70;;;;;;;;;;5057114;28;20063;-33
2022/04/05 10:36:12;;;;;;;4.13;3.25;;;;;;;;;;5057962;28;20486;-33
2022/04/05 10:38:38;;;;;;;5.32;3.97;;;;;;;;;;5056182;28;20040;-35
2022/04/05 10:41:20;;;;;;;4.07;3.67;;;;;;;;;;5064958;28;20037;-34
2022/04/05 10:43:49;;;;;;;5.35;4.40;;;;;;;;;;5063795;28;20497;-34
2022/04/05 10:46:35;;;;;;;5.25;4.70;;;;;;;;;;5066075;28;20044;-32
2022/04/05 10:49:01;;;;;;;5.32;4.22;;;;;;;;;;5062376;28;20127;-33
2022/04/05 10:51:34;;;;;;;6.10;5.07;;;;;;;;;;5060564;28;20037;-33
2022/04/05 10:54:20;;;;;;;7.20;5.55;;;;;;;;;;5066869;28;20064;-33
2022/04/05 10:57:04;;;;;;;7.35;5.38;;;;;;;;;;5058480;28;20041;-31
2022/04/05 10:59:46;;;;;;;6.85;6.10;;;;;;;;;;5058857;28;20047;-31
2022/04/05 11:02:31;;;;;;;8.40;6.53;;;;;;;;;;5066496;28;20064;-33
2022/04/05 11:05:20;;;;;;;7.38;5.93;;;;;;;;;;5063598;28;20060;-34
2022/04/05 11:07:52;;;;;;;7.95;5.90;;;;;;;;;;5059710;28;20515;-31
2022/04/05 11:10:21;;;;;;;7.32;5.45;;;;;;;;;;5054061;28;20041;-34
2022/04/05 11:12:48;;;;;;;6.03;5.20;;;;;;;;;;5063558;28;20039;-33
2022/04/05 11:15:15;;;;;;;6.63;5.32;;;;;;;;;;5073588;28;20043;-33
2022/04/05 11:17:42;;;;;;;5.30;4.70;;;;;;;;;;5069733;28;20080;-32
2022/04/05 11:20:09;;;;;;;5.30;4.30;;;;;;;;;;5070318;28;20048;-32
2022/04/05 11:22:36;;;;;;;6.00;4.75;;;;;;;;;;5074023;28;20041;-34
2022/04/05 11:25:09;;;;;;;5.13;4.53;;;;;;;;;;5060260;28;20090;-34
2022/04/05 11:27:42;;;;;;;4.50;4.03;;;;;;;;;;5071672;28;20044;-34
2022/04/05 11:30:32;;;;;;;4.82;3.90;;;;;;;;;;5064547;28;20378;-34
2022/04/05 11:33:17;;;;;;;3.70;3.38;;;;;;;;;;5068220;28;20394;-33
2022/04/05 11:35:43;;;;;;;4.00;3.47;;;;;;;;;;5064843;28;20055;-34
2022/04/05 11:38:13;;;;;;;3.50;3.20;;;;;;;;;;5065794;28;20469;-34
2022/04/05 11:40:43;;;;;;;4.00;3.60;;;;;;;;;;5069079;28;20451;-32
2022/04/05 11:43:17;;;;;;;3.97;3.40;;;;;;;;;;5068402;28;20076;-34
2022/04/05 11:45:45;;;;;;;4.72;3.70;;;;;;;;;;5067045;28;20032;-35
2022/04/05 11:48:16;;;;;;;3.67;3.03;;;;;;;;;;5067239;28;20383;-33
2022/04/05 11:50:43;;;;;;;3.95;3.25;;;;;;;;;;5059087;28;20072;-34
2022/04/05 11:53:18;;;;;;;3.55;3.15;;;;;;;;;;5067447;28;20035;-34
2022/04/05 11:56:03;;;;;;;4.30;3.70;;;;;;;;;;5068200;28;20036;-34
2022/04/05 11:58:30;;;;;;;4.55;3.55;;;;;;;;;;5073582;28;20068;-34
2022/04/05 12:00:58;;;;;;;3.95;3.30;;;;;;;;;;5055430;28;20486;-32
2022/04/05 12:03:24;;;;;;;4.50;3.58;;;;;;;;;;5053388;28;20041;-32
2022/04/05 12:05:50;;;;;;;5.68;4.00;;;;;;;;;;5057617;28;20098;-32
2022/04/05 12:08:16;;;;;;;4.53;3.85;;;;;;;;;;5073303;28;20076;-30
2022/04/05 12:10:43;;;;;;;4.90;3.47;;;;;;;;;;5067896;28;20107;-33
2022/04/05 12:13:09;;;;;;;5.07;4.10;;;;;;;;;;5053579;28;20125;-34
2022/04/05 12:15:36;;;;;;;4.93;3.83;;;;;;;;;;5054474;28;20048;-33
2022/04/05 12:18:19;;;;;;;5.53;4.38;;;;;;;;;;5051979;28;20041;-33
2022/04/05 12:20:57;;;;;;;4.25;3.85;;;;;;;;;;5055171;28;20041;-33
2022/04/05 12:23:27;;;;;;;5.53;3.75;;;;;;;;;;5056109;28;20044;-32
2022/04/05 12:26:09;;;;;;;5.28;4.28;;;;;;;;;;5053519;28;20044;-32
2022/04/05 12:28:36;;;;;;;7.70;3.92;;;;;;;;;;5071555;28;20036;-31
2022/04/05 12:31:10;;;;;;;9.55;4.07;;;;;;;;;;5062774;28;20112;-32
2022/04/05 12:33:36;;;;;;;5.25;3.92;;;;;;;;;;5056397;28;20392;-33
2022/04/05 12:36:03;;;;;;;5.88;4.50;;;;;;;;;;5066188;28;20386;-32
2022/04/05 12:38:30;;;;;;;8.13;4.45;;;;;;;;;;5063406;28;20434;-35
2022/04/05 12:41:01;;;;;;;5.47;3.88;;;;;;;;;;5063037;28;20387;-33
2022/04/05 12:43:27;;;;;;;4.80;3.92;;;;;;;;;;5061672;28;20042;-32
2022/04/05 12:45:54;;;;;;;5.25;4.47;;;;;;;;;;5068345;28;20036;-32
2022/04/05 12:48:21;;;;;;;5.15;3.55;;;;;;;;;;5065292;28;20380;-32
2022/04/05 12:50:51;;;;;;;5.70;3.75;;;;;;;;;;5060391;28;20029;-34
2022/04/05 12:53:34;;;;;;;7.55;4.10;;;;;;;;;;5067540;28;20474;-30
2022/04/05 12:56:03;;;;;;;6.40;3.78;;;;;;;;;;5056361;28;20046;-31
2022/04/05 12:58:37;;;;;;;5.90;3.90;;;;;;;;;;5070963;28;20033;-35
2022/04/05 13:01:14;;;;;;;5.05;4.30;;;;;;;;;;5060371;28;20041;-33
2022/04/05 13:03:41;;;;;;;6.82;4.50;;;;;;;;;;5051990;28;20037;-33
2022/04/05 13:06:20;;;;;;;4.80;3.58;;;;;;;;;;5064471;28;20482;-31
2022/04/05 13:08:47;;;;;;;6.95;4.28;;;;;;;;;;5063962;28;20052;-33
2022/04/05 13:11:25;;;;;;;9.35;5.07;;;;;;;;;;5063219;28;20482;-33
2022/04/05 13:14:09;;;;;;;7.80;5.45;;;;;;;;;;5065388;28;20036;-31
2022/04/05 13:16:36;;;;;;;9.10;5.85;;;;;;;;;;5064342;28;20036;-32
2022/04/05 13:19:07;;;;;;;10.88;6.30;;;;;;;;;;5063954;28;20041;-31
2022/04/05 13:21:41;;;;;;;11.73;6.75;;;;;;;;;;5058013;28;20040;-31
2022/04/05 13:24:09;;;;;;;11.45;7.03;;;;;;;;;;5057251;28;20070;-33
2022/04/05 13:26:38;;;;;;;9.60;6.40;;;;;;;;;;5064881;28;20127;-34
2022/04/05 13:29:08;;;;;;;12.52;7.32;;;;;;;;;;5062819;28;20557;-33
2022/04/05 13:31:52;;;;;;;10.57;7.18;;;;;;;;;;5057680;28;20115;-32
2022/04/05 13:34:20;;;;;;;14.38;6.88;;;;;;;;;;5051402;28;20087;-32
2022/04/05 13:36:46;;;;;;;8.85;6.43;;;;;;;;;;5063870;28;20048;-35
2022/04/05 13:39:13;;;;;;;9.23;7.32;;;;;;;;;;5062436;28;20040;-34
2022/04/05 13:41:40;;;;;;;8.77;6.97;;;;;;;;;;5069366;28;20044;-31
2022/04/05 13:44:06;;;;;;;11.27;7.57;;;;;;;;;;5071271;28;20115;-36
2022/04/05 13:46:35;;;;;;;11.88;7.63;;;;;;;;;;5059424;28;20212;-33
2022/04/05 13:49:06;;;;;;;12.52;7.65;;;;;;;;;;5050770;28;20045;-34
2022/04/05 13:51:32;;;;;;;13.30;7.47;;;;;;;;;;5059627;28;20486;-31
2022/04/05 13:53:58;;;;;;;11.02;7.47;;;;;;;;;;5071039;28;20037;-33
2022/04/05 13:56:24;;;;;;;11.65;7.50;;;;;;;;;;5061293;28;20080;-32
2022/04/05 13:58:51;;;;;;;10.32;6.82;;;;;;;;;;5050813;28;20044;-33
2022/04/05 14:01:17;;;;;;;7.97;5.43;;;;;;;;;;5050788;28;20063;-32
2022/04/05 14:03:43;;;;;;;11.02;5.78;;;;;;;;;;5054328;28;20040;-31
2022/04/05 14:06:09;;;;;;;7.90;5.68;;;;;;;;;;5064553;28;20033;-33
2022/04/05 14:08:35;;;;;;;6.35;5.20;;;;;;;;;;5051865;28;20033;-32
2022/04/05 14:11:02;;;;;;;9.20;5.30;;;;;;;;;;5059309;28;20048;-31
2022/04/05 14:13:28;;;;;;;7.22;5.43;;;;;;;;;;5050546;28;20045;-31
2022/04/05 14:15:54;;;;;;;8.90;5.90;;;;;;;;;;5063729;28;20048;-30
2022/04/05 14:18:20;;;;;;;7.72;5.80;;;;;;;;;;5057946;28;20067;-32
2022/04/05 14:20:47;;;;;;;10.48;5.75;;;;;;;;;;5064669;28;20075;-33
2022/04/05 14:23:13;;;;;;;7.50;6.18;;;;;;;;;;5050279;28;20509;-34
2022/04/05 14:25:39;;;;;;;9.40;6.63;;;;;;;;;;5050621;28;20045;-32
2022/04/05 14:28:06;;;;;;;8.13;6.20;;;;;;;;;;5051408;28;20041;-31
2022/04/05 14:30:33;;;;;;;10.57;7.10;;;;;;;;;;5057384;28;20114;-31
2022/04/05 14:33:00;;;;;;;10.57;7.00;;;;;;;;;;5056959;28;20033;-32
2022/04/05 14:35:26;;;;;;;9.70;7.05;;;;;;;;;;5065759;28;20403;-34
2022/04/05 14:37:52;;;;;;;10.45;7.53;;;;;;;;;;5068124;28;20551;-33
2022/04/05 14:40:18;;;;;;;9.13;7.18;;;;;;;;;;5053602;28;20379;-32
2022/04/05 14:42:44;;;;;;;12.40;8.20;;;;;;;;;;5055497;28;20257;-32
2022/04/05 14:45:11;;;;;;;11.73;7.55;;;;;;;;;;5066733;28;20041;-30
2022/04/05 14:47:37;;;;;;;11.88;8.52;;;;;;;;;;5064268;28;20394;-32
2022/04/05 14:50:07;;;;;;;16.90;9.00;;;;;;;;;;5066857;28;20029;-32